Portada
METAR-TAF:

METAR-TAF

Aeroports :

Burlington Municipal Airport

Burlington, Wisconsin, Estats Units d'Amèrica

latitud: 42-41-26N, longitud: 088-18-17W, altitud: 237 m

Observació

L'informe es va fer fa 38 minuts, a les 08:55 UTC
Vent calma
Temperatura 14°C
Humitat 100%
Pressió 1012 hPa
Visibilitat: 0.4 km
Cel ennuvolat a una alçada de 100 ft
Cel ennuvolat a una alçada de 2100 ft
Cel ennuvolat a una alçada de 2800 ft
boira

METAR: KBUU 250855Z AUTO 00000KT 1/4SM FG BKN001 BKN021 BKN028 14/14 A2988 RMK AO2 T01430142

Hora: 04:33 (09:33 UTC)


TAF: manca

Observacions i pronòstics meteorològics de més de 4000 aeroports (METAR i TAF).

Les estacions disponibles són els punts grocs i vermells al mapa.

Posi el ratolí al punt desitjat per veure el nom de l'estació.

Feu clic per veure les observacions i els pronòstics meteorològics.

Per canviar el mapa: feu clic els botons verds amb una creu de color negre per apropar; al botó verd amb un guió per allunyar la imatge; o en les fletxes verdes per a mapes adjacents.


METAR-TAF: